This is the latest recevied weather packets stored in our database for station/object DD6UBW. If no packets are shown the sender has not sent any weather packets the latest 10 day(s).
| Time | Temp. | Humidity | Pressure | Rain* | Wind** | Luminosity | Snow |
|---|---|---|---|---|---|---|---|
| 1788201000 | 18.89° C | 68% | 1010.6 hPa | 2.54 mm | - | - | - |
| 1788199200 | 19.44° C | 68% | 1010.6 hPa | 2.54 mm | - | - | - |
| 1788197401 | 20° C | 66% | 1010.6 hPa | 2.54 mm | - | - | - |
| 1788195600 | 23.33° C | 50% | 1009.6 hPa | 2.54 mm | - | - | - |
| 1788193801 | 24.44° C | 48% | 1009.6 hPa | 2.54 mm | - | - | - |
| 1788192013 | 24.44° C | 50% | 1009.6 hPa | 2.54 mm | - | - | - |
| 1788190200 | 25.56° C | 49% | 1009.6 hPa | 2.54 mm | - | - | - |
| 1788188400 | 25° C | 48% | 1009.6 hPa | 2.54 mm | - | - | - |
| 1788186602 | 25° C | 55% | 1009.6 hPa | 2.54 mm | - | - | - |
| 1788184801 | 25.56° C | 53% | 1009.6 hPa | 2.54 mm | - | - | - |
| 1788183001 | 25° C | 57% | 1009.6 hPa | 2.54 mm | - | - | - |
| 1788181201 | 25° C | 56% | 1009.6 hPa | 2.54 mm | - | - | - |
| 1788179403 | 24.44° C | 60% | 1009.6 hPa | 2.54 mm | - | - | - |
| 1788177602 | 23.89° C | 63% | 1010.6 hPa | 2.54 mm | - | - | - |
| 1788175802 | 23.89° C | 62% | 1010.6 hPa | 2.54 mm | - | - | - |
| 1788174001 | 22.78° C | 66% | 1010.6 hPa | 2.54 mm | - | - | - |
| 1788172201 | 21.67° C | 72% | 1010.6 hPa | 2.54 mm | - | - | - |
| 1788170401 | 21.11° C | 76% | 1010.6 hPa | 2.54 mm | - | - | - |
| 1788168601 | 18.89° C | 84% | 1010.6 hPa | 2.54 mm | - | - | - |
| 1788166801 | 16.67° C | 87% | 1011.6 hPa | 2.29 mm | - | - | - |
| 1788165001 | 16.11° C | 87% | 1011.6 hPa | 2.03 mm | - | - | - |
| 1788163201 | 16.11° C | 85% | 1010.6 hPa | 1.78 mm | - | - | - |
| 1788161401 | 16.11° C | 83% | 1010.6 hPa | 1.27 mm | - | - | - |
| 1788159601 | 16.67° C | 77% | 1010.6 hPa | 0 mm | - | - | - |
| 1788157801 | 16.67° C | 78% | 1010.6 hPa | 0 mm | - | - | - |
* Rain since midnight (hover to see other rain measurements)
** Current wind speed in m/s (hover to see current wind gust speed)